createdAt,value
2022-12-11T00:01:46.970Z,35.42
2022-12-11T00:04:14.584Z,35.85
2022-12-11T00:06:42.573Z,38.10
2022-12-11T00:09:10.319Z,38.67
2022-12-11T00:11:37.973Z,39.67
2022-12-11T00:14:05.552Z,37.72
2022-12-11T00:16:33.070Z,36.72
2022-12-11T00:19:00.590Z,39.53
2022-12-11T00:21:28.133Z,39.58
2022-12-11T00:23:55.647Z,42.67
2022-12-11T00:26:23.349Z,41.38
2022-12-11T00:28:55.367Z,38.78
2022-12-11T00:33:50.795Z,42.05
2022-12-11T00:36:27.776Z,40.38
2022-12-11T00:38:55.260Z,39.60
2022-12-11T00:41:22.920Z,40.85
2022-12-11T00:43:50.544Z,38.85
2022-12-11T00:46:18.401Z,39.25
2022-12-11T00:48:46.279Z,39.78
2022-12-11T00:51:13.871Z,37.10
2022-12-11T00:53:41.346Z,37.28
2022-12-11T00:56:26.723Z,39.00
2022-12-11T00:58:54.491Z,36.30
2022-12-11T01:01:23.725Z,36.30
2022-12-11T01:03:53.464Z,37.65
2022-12-11T01:06:23.250Z,37.53
2022-12-11T01:09:13.785Z,38.42
2022-12-11T01:11:42.179Z,38.37
2022-12-11T01:14:10.181Z,36.80
2022-12-11T01:16:39.415Z,35.72
2022-12-11T01:19:07.139Z,36.17
2022-12-11T01:21:34.611Z,35.00
2022-12-11T01:24:02.083Z,31.65
2022-12-11T01:26:30.833Z,31.27
2022-12-11T01:29:01.024Z,31.75
2022-12-11T01:31:28.578Z,31.80
2022-12-11T01:33:56.127Z,33.88
2022-12-11T01:36:23.846Z,32.58
2022-12-11T01:38:51.554Z,32.60
2022-12-11T01:41:19.161Z,31.52
2022-12-11T01:43:58.796Z,29.73
2022-12-11T01:46:26.736Z,32.72
2022-12-11T01:48:54.923Z,31.33
2022-12-11T01:51:23.317Z,32.20
2022-12-11T01:53:54.456Z,33.08
2022-12-11T01:56:22.231Z,31.98
2022-12-11T01:58:51.571Z,33.17
2022-12-11T02:01:23.551Z,32.45
2022-12-11T02:03:54.287Z,31.58
2022-12-11T02:06:33.901Z,32.22
2022-12-11T02:09:02.125Z,33.70
2022-12-11T02:11:33.949Z,32.60
2022-12-11T02:14:06.431Z,33.65
2022-12-11T02:16:38.065Z,29.90
2022-12-11T02:19:15.984Z,32.10
2022-12-11T02:21:48.724Z,30.33
2022-12-11T02:24:28.011Z,31.88
2022-12-11T02:26:59.940Z,31.05
2022-12-11T02:29:32.764Z,31.30
2022-12-11T02:32:03.611Z,30.83
2022-12-11T02:34:31.124Z,29.05
2022-12-11T02:37:02.665Z,29.88
2022-12-11T02:39:31.052Z,33.45
2022-12-11T02:41:59.253Z,35.42
2022-12-11T02:44:28.908Z,32.28
2022-12-11T02:46:56.645Z,30.02
2022-12-11T02:49:25.104Z,30.25
2022-12-11T02:51:53.231Z,30.95
2022-12-11T02:54:25.805Z,26.50
2022-12-11T02:57:19.069Z,26.08
2022-12-11T02:59:48.272Z,27.92
2022-12-11T03:02:17.340Z,27.35
2022-12-11T03:04:45.345Z,28.45
2022-12-11T03:07:15.810Z,29.85
2022-12-11T03:09:44.761Z,30.23
2022-12-11T03:12:20.993Z,30.20
2022-12-11T03:14:49.211Z,30.98
2022-12-11T03:17:22.002Z,33.17
2022-12-11T03:19:49.696Z,34.72
2022-12-11T03:22:18.864Z,34.10
2022-12-11T03:25:03.403Z,34.10
2022-12-11T03:27:37.585Z,34.90
2022-12-11T03:30:13.446Z,36.00
2022-12-11T03:32:51.038Z,35.67
2022-12-11T03:35:24.437Z,35.38
2022-12-11T03:37:52.952Z,37.35
2022-12-11T03:40:22.278Z,37.15
2022-12-11T03:42:52.051Z,38.17
2022-12-11T03:45:20.947Z,42.35
2022-12-11T03:47:49.516Z,38.58
2022-12-11T03:50:18.099Z,41.28
2022-12-11T03:52:46.888Z,38.60
2022-12-11T03:55:16.730Z,38.33
2022-12-11T03:57:44.376Z,37.80
2022-12-11T04:00:14.039Z,35.38
2022-12-11T04:02:42.430Z,33.22
2022-12-11T04:05:11.393Z,31.92
2022-12-11T04:07:39.146Z,31.42
2022-12-11T04:10:07.616Z,32.40
2022-12-11T04:12:35.162Z,31.38
2022-12-11T04:15:02.745Z,32.80
2022-12-11T04:17:53.602Z,29.33
2022-12-11T04:20:39.840Z,30.10
2022-12-11T04:23:30.999Z,29.80
2022-12-11T04:26:06.120Z,31.08
2022-12-11T04:28:34.229Z,30.85
2022-12-11T04:31:01.763Z,32.03
2022-12-11T04:33:30.000Z,30.65
2022-12-11T04:36:01.420Z,30.63
2022-12-11T04:38:29.016Z,28.70
2022-12-11T04:41:04.381Z,29.73
2022-12-11T04:43:32.234Z,29.88
2022-12-11T04:46:04.625Z,29.40
2022-12-11T04:48:32.340Z,30.52
2022-12-11T04:51:00.276Z,31.13
2022-12-11T04:53:28.253Z,29.10
2022-12-11T04:55:55.919Z,32.05
2022-12-11T04:58:23.735Z,30.77
2022-12-11T05:00:51.452Z,29.15
2022-12-11T05:03:19.113Z,28.58
2022-12-11T05:05:53.259Z,30.38
2022-12-11T05:08:21.449Z,29.65
2022-12-11T05:11:03.209Z,31.83
2022-12-11T05:13:31.224Z,32.83
2022-12-11T05:15:59.280Z,30.50
2022-12-11T05:18:27.170Z,28.67
2022-12-11T05:21:08.984Z,30.95
2022-12-11T05:23:36.706Z,30.13
2022-12-11T05:26:06.215Z,30.23
2022-12-11T05:28:35.237Z,31.63
2022-12-11T05:31:04.481Z,31.15
2022-12-11T05:33:32.323Z,32.22
2022-12-11T05:36:03.255Z,30.67
2022-12-11T05:38:30.880Z,29.58
2022-12-11T05:41:02.536Z,26.85
2022-12-11T05:43:31.119Z,30.38
2022-12-11T05:46:05.807Z,30.25
2022-12-11T05:48:33.590Z,30.88
2022-12-11T05:51:02.162Z,29.50
2022-12-11T05:53:30.068Z,31.70
2022-12-11T05:56:13.613Z,28.92
2022-12-11T05:58:42.084Z,28.95
2022-12-11T06:01:11.564Z,30.17
2022-12-11T06:03:39.505Z,27.38
2022-12-11T06:06:07.510Z,29.02
2022-12-11T06:08:35.656Z,28.45
2022-12-11T06:11:03.377Z,29.10
2022-12-11T06:13:30.967Z,29.25
2022-12-11T06:16:05.741Z,29.33
2022-12-11T06:18:36.344Z,29.25
2022-12-11T06:21:11.376Z,30.48
2022-12-11T06:23:38.951Z,30.65
2022-12-11T06:26:07.125Z,33.33
2022-12-11T06:28:34.777Z,33.20
2022-12-11T06:31:02.466Z,33.03
2022-12-11T06:33:30.403Z,31.08
2022-12-11T06:35:58.084Z,31.25
2022-12-11T06:38:25.607Z,31.77
2022-12-11T06:40:57.084Z,29.42
2022-12-11T06:43:24.948Z,31.17
2022-12-11T06:45:52.715Z,30.13
2022-12-11T06:48:20.892Z,30.38
2022-12-11T06:50:48.523Z,30.30
2022-12-11T06:53:16.757Z,31.33
2022-12-11T06:55:44.569Z,29.40
2022-12-11T06:58:12.200Z,31.17
2022-12-11T07:00:39.893Z,28.65
2022-12-11T07:03:07.658Z,29.33
2022-12-11T07:05:35.321Z,28.30
2022-12-11T07:08:03.022Z,29.85
2022-12-11T07:10:30.683Z,28.65
2022-12-11T07:12:58.310Z,26.13
2022-12-11T07:15:25.864Z,26.08
2022-12-11T07:17:53.440Z,26.25
2022-12-11T07:20:21.006Z,26.98
2022-12-11T07:22:48.619Z,27.00
2022-12-11T07:25:16.297Z,25.15
2022-12-11T07:27:43.861Z,26.05
2022-12-11T07:30:11.842Z,26.17
2022-12-11T07:32:39.421Z,26.73
2022-12-11T07:35:07.124Z,24.30
2022-12-11T07:37:34.770Z,26.33
2022-12-11T07:40:02.272Z,26.50
2022-12-11T07:42:29.912Z,27.40
2022-12-11T07:44:57.479Z,27.35
2022-12-11T07:47:25.014Z,27.58
2022-12-11T07:49:52.593Z,26.70
2022-12-11T07:52:20.235Z,29.02
2022-12-11T07:54:47.782Z,25.60
2022-12-11T07:57:15.404Z,26.67
2022-12-11T07:59:46.811Z,26.98
2022-12-11T08:02:14.517Z,26.90
2022-12-11T08:04:42.142Z,26.45
2022-12-11T08:07:09.723Z,27.15
2022-12-11T08:09:37.553Z,27.40
2022-12-11T08:12:05.628Z,27.60
2022-12-11T08:14:33.198Z,26.98
2022-12-11T08:17:02.323Z,28.77
2022-12-11T08:19:30.047Z,26.80
2022-12-11T08:22:04.482Z,26.05
2022-12-11T08:30:13.560Z,27.85
2022-12-11T08:32:48.104Z,25.30
2022-12-11T08:35:15.837Z,25.67
2022-12-11T08:37:43.525Z,26.77
2022-12-11T08:40:12.284Z,28.63
2022-12-11T08:42:43.432Z,26.98
2022-12-11T08:45:15.049Z,23.35
2022-12-11T08:47:43.096Z,24.92
2022-12-11T08:50:15.037Z,25.88
2022-12-11T08:52:51.980Z,24.70
2022-12-11T08:55:27.029Z,26.27
2022-12-11T08:57:54.675Z,25.75
2022-12-11T09:00:22.393Z,25.30
2022-12-11T09:02:51.693Z,23.52
2022-12-11T09:05:19.802Z,27.13
2022-12-11T09:07:47.691Z,28.00
2022-12-11T09:10:15.483Z,25.50
2022-12-11T09:12:44.239Z,29.40
2022-12-11T09:15:12.380Z,27.98
2022-12-11T09:17:40.329Z,27.90
2022-12-11T09:20:10.174Z,27.35
2022-12-11T09:22:39.844Z,27.45
2022-12-11T09:25:14.098Z,28.13
2022-12-11T09:27:46.797Z,27.70
2022-12-11T09:30:23.121Z,28.17
2022-12-11T09:32:50.794Z,27.17
2022-12-11T09:35:21.008Z,29.98
2022-12-11T09:37:48.567Z,28.02
2022-12-11T09:40:16.262Z,27.65
2022-12-11T09:42:50.453Z,25.88
2022-12-11T09:45:18.476Z,26.58
2022-12-11T09:47:51.104Z,27.73
2022-12-11T09:50:29.064Z,28.02
2022-12-11T09:53:06.068Z,28.63
2022-12-11T09:55:56.581Z,27.98
2022-12-11T09:58:37.031Z,27.70
2022-12-11T10:01:19.318Z,25.10
2022-12-11T10:04:15.108Z,24.42
2022-12-11T10:07:10.257Z,24.70
2022-12-11T10:09:50.358Z,26.65
2022-12-11T10:12:17.868Z,26.17
2022-12-11T10:14:56.130Z,27.35
2022-12-11T10:17:28.206Z,27.08
2022-12-11T10:19:59.442Z,26.85
2022-12-11T10:25:12.319Z,26.67
2022-12-11T10:27:44.676Z,28.00
2022-12-11T10:30:17.127Z,26.63
2022-12-11T10:32:56.992Z,27.10
2022-12-11T10:35:31.763Z,28.00
2022-12-11T10:38:05.082Z,26.90
2022-12-11T10:40:36.518Z,27.45
2022-12-11T10:43:04.189Z,27.10
2022-12-11T10:45:34.666Z,23.02
2022-12-11T10:48:06.657Z,20.38
2022-12-11T10:50:34.318Z,23.25
2022-12-11T10:53:05.108Z,23.95
2022-12-11T10:55:40.305Z,21.38
2022-12-11T10:58:10.134Z,21.30
2022-12-11T11:00:41.713Z,22.77
2022-12-11T11:03:21.449Z,20.15
2022-12-11T11:05:50.598Z,18.77
2022-12-11T11:08:25.602Z,19.23
2022-12-11T11:10:57.748Z,17.48
2022-12-11T11:13:26.521Z,17.02
2022-12-11T11:16:01.374Z,18.65
2022-12-11T11:21:20.519Z,18.73
2022-12-11T11:23:56.080Z,17.98
2022-12-11T11:26:56.266Z,17.25
2022-12-11T11:29:36.318Z,16.90
2022-12-11T11:32:21.612Z,15.77
2022-12-11T11:34:49.520Z,17.50
2022-12-11T11:37:25.161Z,18.08
2022-12-11T11:39:59.733Z,17.05
2022-12-11T11:42:36.522Z,16.95
2022-12-11T11:45:13.136Z,16.33
2022-12-11T11:47:44.325Z,15.70
2022-12-11T11:53:12.972Z,16.35
2022-12-11T12:00:59.799Z,13.98
2022-12-11T12:03:29.264Z,14.68
2022-12-11T12:05:57.318Z,14.48
2022-12-11T12:08:25.520Z,15.48
2022-12-11T12:13:50.434Z,14.25
2022-12-11T12:16:53.187Z,13.82
2022-12-11T12:19:36.513Z,14.73
2022-12-11T12:22:28.525Z,14.88
2022-12-11T12:25:15.450Z,15.65
2022-12-11T12:27:52.793Z,14.30
2022-12-11T12:30:24.296Z,13.95
2022-12-11T12:35:32.892Z,14.63
2022-12-11T12:38:03.651Z,15.80
2022-12-11T12:40:38.288Z,12.98
2022-12-11T12:43:21.280Z,16.05
2022-12-11T12:45:48.886Z,15.02
2022-12-11T12:48:16.745Z,18.02
2022-12-11T12:50:48.635Z,16.42
2022-12-11T12:53:37.410Z,15.77
2022-12-11T12:56:06.295Z,15.15
2022-12-11T12:58:36.881Z,15.63
2022-12-11T13:01:16.274Z,12.23
2022-12-11T13:03:52.445Z,14.82
2022-12-11T13:06:35.561Z,17.33
2022-12-11T13:11:38.840Z,15.32
2022-12-11T13:16:50.928Z,15.82
2022-12-11T13:19:42.873Z,16.88
2022-12-11T13:22:14.209Z,17.10
2022-12-11T13:27:10.490Z,16.83
2022-12-11T13:29:49.637Z,17.40
2022-12-11T13:32:17.152Z,17.85
2022-12-11T13:34:47.902Z,16.08
2022-12-11T13:37:24.076Z,16.05
2022-12-11T13:40:01.730Z,16.73
2022-12-11T13:42:33.785Z,16.33
2022-12-11T13:45:08.207Z,16.08
2022-12-11T13:47:42.793Z,15.38
2022-12-11T13:50:16.197Z,16.65
2022-12-11T13:52:53.682Z,18.10
2022-12-11T13:55:26.334Z,16.58
2022-12-11T13:57:54.598Z,16.65
2022-12-11T14:00:30.164Z,17.80
2022-12-11T14:02:59.217Z,18.50
2022-12-11T14:05:26.872Z,18.70
2022-12-11T14:07:57.232Z,17.50
2022-12-11T14:10:26.530Z,19.27
2022-12-11T14:13:14.371Z,18.63
2022-12-11T14:15:44.655Z,18.35
2022-12-11T14:18:26.979Z,18.52
2022-12-11T14:20:55.938Z,18.42
2022-12-11T14:23:27.552Z,19.20
2022-12-11T14:26:03.620Z,19.38
2022-12-11T14:28:37.207Z,18.05
2022-12-11T14:31:06.014Z,17.65
2022-12-11T14:33:36.138Z,17.67
2022-12-11T14:36:04.306Z,17.27
2022-12-11T14:38:37.386Z,18.05
2022-12-11T14:41:17.476Z,20.75
2022-12-11T14:43:50.708Z,18.95
2022-12-11T14:46:20.519Z,16.92
2022-12-11T14:49:01.200Z,18.38
2022-12-11T14:51:31.780Z,19.80
2022-12-11T14:53:59.797Z,21.07
2022-12-11T14:56:30.304Z,21.33
2022-12-11T14:59:01.190Z,18.90
2022-12-11T15:01:30.677Z,20.95
2022-12-11T15:04:17.703Z,19.35
2022-12-11T15:06:46.442Z,20.15
2022-12-11T15:09:18.476Z,20.45
2022-12-11T15:11:47.057Z,21.17
2022-12-11T15:14:17.068Z,21.20
2022-12-11T15:16:44.967Z,21.95
2022-12-11T15:19:27.780Z,22.10
2022-12-11T15:21:55.646Z,22.27
2022-12-11T15:24:26.296Z,22.55
2022-12-11T15:26:57.519Z,23.70
2022-12-11T15:29:28.250Z,22.45
2022-12-11T15:32:19.178Z,23.00
2022-12-11T15:34:57.449Z,22.40
2022-12-11T15:37:36.667Z,27.13
2022-12-11T15:40:04.820Z,26.05
2022-12-11T15:42:32.627Z,26.33
2022-12-11T15:45:00.658Z,26.75
2022-12-11T15:47:30.979Z,27.25
2022-12-11T15:50:00.389Z,27.08
2022-12-11T15:52:28.307Z,27.95
2022-12-11T15:54:55.959Z,27.00
2022-12-11T15:57:24.885Z,29.33
2022-12-11T15:59:53.747Z,28.58
2022-12-11T16:02:21.654Z,28.15
2022-12-11T16:04:49.289Z,30.70
2022-12-11T16:07:18.603Z,33.75
2022-12-11T16:09:47.339Z,35.05
2022-12-11T16:12:16.983Z,34.13
2022-12-11T16:20:09.833Z,38.90
2022-12-11T16:22:38.399Z,37.88
2022-12-11T16:25:06.256Z,39.22
2022-12-11T16:27:37.353Z,38.38
2022-12-11T16:30:07.781Z,35.97
2022-12-11T16:32:38.631Z,36.08
2022-12-11T16:35:06.434Z,41.25
2022-12-11T16:37:34.288Z,40.03
2022-12-11T16:40:02.072Z,42.50
2022-12-11T16:42:29.608Z,39.65
2022-12-11T16:45:06.489Z,36.33
2022-12-11T16:47:33.988Z,35.30
2022-12-11T16:50:05.437Z,33.50
2022-12-11T16:52:33.756Z,34.17
2022-12-11T16:55:03.002Z,33.83
2022-12-11T16:57:30.524Z,32.00
2022-12-11T16:59:58.294Z,32.25
2022-12-11T17:02:26.129Z,31.17
2022-12-11T17:04:57.703Z,32.63
2022-12-11T17:07:26.439Z,32.40
2022-12-11T17:09:54.061Z,32.50
2022-12-11T17:12:27.986Z,33.88
2022-12-11T17:14:56.480Z,32.40
2022-12-11T17:17:24.696Z,32.00
2022-12-11T17:19:52.392Z,32.03
2022-12-11T17:22:21.527Z,33.40
2022-12-11T17:24:49.548Z,30.67
2022-12-11T17:27:19.653Z,34.30
2022-12-11T17:29:49.529Z,33.40
2022-12-11T17:32:19.956Z,33.95
2022-12-11T17:34:54.832Z,36.40
2022-12-11T17:37:24.638Z,35.53
2022-12-11T17:39:52.195Z,35.92
2022-12-11T17:42:21.576Z,35.35
2022-12-11T17:44:49.080Z,39.42
2022-12-11T17:47:16.592Z,34.38
2022-12-11T17:49:44.177Z,34.58
2022-12-11T17:52:11.954Z,35.75
2022-12-11T17:54:39.506Z,33.75
2022-12-11T17:57:07.166Z,33.80
2022-12-11T17:59:38.643Z,34.17
2022-12-11T18:02:06.236Z,35.25
2022-12-11T18:04:33.888Z,34.38
2022-12-11T18:07:01.544Z,35.75
2022-12-11T18:09:29.023Z,35.28
2022-12-11T18:11:56.535Z,37.72
2022-12-11T18:14:26.728Z,32.83
2022-12-11T18:16:54.302Z,33.95
2022-12-11T18:19:22.658Z,35.45
2022-12-11T18:21:50.344Z,33.47
2022-12-11T18:24:18.456Z,34.85
2022-12-11T18:26:46.731Z,36.15
2022-12-11T18:29:14.453Z,33.58
2022-12-11T18:31:43.413Z,37.80
2022-12-11T18:34:13.528Z,35.45
2022-12-11T18:36:41.131Z,34.05
2022-12-11T18:39:08.835Z,32.58
2022-12-11T18:41:36.448Z,35.25
2022-12-11T18:44:09.705Z,35.55
2022-12-11T18:46:40.623Z,33.60
2022-12-11T18:49:08.182Z,32.17
2022-12-11T18:51:36.125Z,32.70
2022-12-11T18:54:03.779Z,31.70
2022-12-11T18:56:31.542Z,30.98
2022-12-11T18:59:06.635Z,31.95
2022-12-11T19:01:34.606Z,32.58
2022-12-11T19:04:06.680Z,33.78
2022-12-11T19:06:38.310Z,33.05
2022-12-11T19:09:07.053Z,33.42
2022-12-11T19:11:35.184Z,34.10
2022-12-11T19:14:06.941Z,34.55
2022-12-11T19:16:44.426Z,33.35
2022-12-11T19:19:23.318Z,32.20
2022-12-11T19:21:53.674Z,32.72
2022-12-11T19:24:24.580Z,29.45
2022-12-11T19:26:52.480Z,32.50
2022-12-11T19:29:32.576Z,29.77
2022-12-11T19:32:03.162Z,29.27
2022-12-11T19:34:30.938Z,36.22
2022-12-11T19:37:01.656Z,38.80
2022-12-11T19:39:34.131Z,35.67
2022-12-11T19:42:10.857Z,36.17
2022-12-11T19:44:38.695Z,35.55
2022-12-11T19:47:10.660Z,36.10
2022-12-11T19:49:41.193Z,39.85
2022-12-11T19:52:16.281Z,38.67
2022-12-11T19:54:48.446Z,34.08
2022-12-11T19:57:20.298Z,33.33
2022-12-11T19:59:52.567Z,33.78
2022-12-11T20:02:23.765Z,34.25
2022-12-11T20:04:52.431Z,34.33
2022-12-11T20:07:20.274Z,35.70
2022-12-11T20:09:47.740Z,37.83
2022-12-11T20:12:15.366Z,38.35
2022-12-11T20:14:43.798Z,38.83
2022-12-11T20:17:14.497Z,37.15
2022-12-11T20:19:43.195Z,39.42
2022-12-11T20:22:11.355Z,42.42
2022-12-11T20:24:41.698Z,47.70
2022-12-11T20:27:16.949Z,42.25
2022-12-11T20:29:44.700Z,40.80
2022-12-11T20:32:12.654Z,40.67
2022-12-11T20:34:40.354Z,40.17
2022-12-11T20:37:08.227Z,39.28
2022-12-11T20:39:41.924Z,43.58
2022-12-11T20:42:10.534Z,45.72
2022-12-11T20:44:49.282Z,44.83
2022-12-11T20:47:19.960Z,45.60
2022-12-11T20:49:48.514Z,46.75
2022-12-11T20:52:16.992Z,44.65
2022-12-11T20:54:44.635Z,43.85
2022-12-11T20:57:13.470Z,44.08
2022-12-11T20:59:41.105Z,42.42
2022-12-11T21:02:09.217Z,42.30
2022-12-11T21:04:41.251Z,42.88
2022-12-11T21:07:09.173Z,51.15
2022-12-11T21:09:36.932Z,39.85
2022-12-11T21:12:05.108Z,41.72
2022-12-11T21:14:32.813Z,40.60
2022-12-11T21:17:01.449Z,35.25
2022-12-11T21:19:28.950Z,37.85
2022-12-11T21:21:56.720Z,40.00
2022-12-11T21:24:26.450Z,38.40
2022-12-11T21:26:55.519Z,38.63
2022-12-11T21:29:23.901Z,36.10
2022-12-11T21:31:51.509Z,39.97
2022-12-11T21:34:25.102Z,39.78
2022-12-11T21:36:57.064Z,38.50
2022-12-11T21:39:25.617Z,37.20
2022-12-11T21:41:53.501Z,38.67
2022-12-11T21:47:09.594Z,40.30
2022-12-11T21:49:37.936Z,43.72
2022-12-11T21:52:06.061Z,47.38
2022-12-11T21:54:33.997Z,44.92
2022-12-11T21:57:01.847Z,44.28
2022-12-11T21:59:30.106Z,45.83
2022-12-11T22:02:00.564Z,41.50
2022-12-11T22:04:28.396Z,42.17
2022-12-11T22:06:56.048Z,42.33
2022-12-11T22:09:23.830Z,43.05
2022-12-11T22:11:56.558Z,43.03
2022-12-11T22:14:25.766Z,42.92
2022-12-11T22:16:53.301Z,43.40
2022-12-11T22:19:20.812Z,39.55
2022-12-11T22:21:48.374Z,40.38
2022-12-11T22:24:15.970Z,41.58
2022-12-11T22:26:43.442Z,40.10
2022-12-11T22:29:10.885Z,40.15
2022-12-11T22:31:38.418Z,38.22
2022-12-11T22:34:05.972Z,38.30
2022-12-11T22:36:33.500Z,35.45
2022-12-11T22:39:03.495Z,34.22
2022-12-11T22:41:32.259Z,38.28
2022-12-11T22:44:02.341Z,34.50
2022-12-11T22:46:30.966Z,34.38
2022-12-11T22:48:59.177Z,33.00
2022-12-11T22:51:26.712Z,34.00
2022-12-11T22:53:54.182Z,33.05
2022-12-11T22:56:21.964Z,34.53
2022-12-11T22:58:49.482Z,34.42
2022-12-11T23:01:18.378Z,33.78
2022-12-11T23:03:45.973Z,34.40
2022-12-11T23:06:14.809Z,32.53
2022-12-11T23:08:42.954Z,34.80
2022-12-11T23:11:13.215Z,30.88
2022-12-11T23:13:41.014Z,33.42
2022-12-11T23:16:09.131Z,33.15
2022-12-11T23:18:36.638Z,31.58
2022-12-11T23:21:04.573Z,30.75
2022-12-11T23:23:32.079Z,32.47
2022-12-11T23:25:59.552Z,34.47
2022-12-11T23:28:27.209Z,32.40
2022-12-11T23:30:54.964Z,29.92
2022-12-11T23:33:23.575Z,32.20
2022-12-11T23:35:51.020Z,30.58
2022-12-11T23:38:18.547Z,34.10
2022-12-11T23:40:46.282Z,30.25
2022-12-11T23:43:13.814Z,32.17
2022-12-11T23:45:44.114Z,31.02
2022-12-11T23:48:12.588Z,31.60
2022-12-11T23:50:40.547Z,29.30
2022-12-11T23:53:08.042Z,30.38
2022-12-11T23:55:35.518Z,32.47
2022-12-11T23:58:03.035Z,30.45
